sensor_id;sensor_type;location;lat;lon;timestamp;temperature;humidity
13198;DHT22;6664;52.514;13.440;2022-08-19T00:01:45;21.20;99.90
13198;DHT22;6664;52.514;13.440;2022-08-19T00:04:21;21.20;99.90
13198;DHT22;6664;52.514;13.440;2022-08-19T00:06:51;21.20;99.90
13198;DHT22;6664;52.514;13.440;2022-08-19T00:09:23;21.20;99.90
13198;DHT22;6664;52.514;13.440;2022-08-19T00:11:50;21.20;99.90
13198;DHT22;6664;52.514;13.440;2022-08-19T00:14:20;21.30;99.90
13198;DHT22;6664;52.514;13.440;2022-08-19T00:16:48;21.30;99.90
13198;DHT22;6664;52.514;13.440;2022-08-19T00:19:16;21.30;99.90
13198;DHT22;6664;52.514;13.440;2022-08-19T00:21:46;21.40;99.90
13198;DHT22;6664;52.514;13.440;2022-08-19T00:24:14;21.40;99.90
13198;DHT22;6664;52.514;13.440;2022-08-19T00:26:43;21.40;99.90
13198;DHT22;6664;52.514;13.440;2022-08-19T00:29:15;21.40;99.90
13198;DHT22;6664;52.514;13.440;2022-08-19T00:31:44;21.40;99.90
13198;DHT22;6664;52.514;13.440;2022-08-19T00:34:12;21.40;99.90
13198;DHT22;6664;52.514;13.440;2022-08-19T00:36:40;21.40;99.90
13198;DHT22;6664;52.514;13.440;2022-08-19T00:39:10;21.30;99.90
13198;DHT22;6664;52.514;13.440;2022-08-19T00:41:37;21.40;99.90
13198;DHT22;6664;52.514;13.440;2022-08-19T00:44:11;21.40;99.90
13198;DHT22;6664;52.514;13.440;2022-08-19T00:46:44;21.30;99.90
13198;DHT22;6664;52.514;13.440;2022-08-19T00:49:51;21.40;99.90
13198;DHT22;6664;52.514;13.440;2022-08-19T00:52:26;21.40;99.90
13198;DHT22;6664;52.514;13.440;2022-08-19T00:54:56;21.30;99.90
13198;DHT22;6664;52.514;13.440;2022-08-19T00:57:32;21.00;99.90
13198;DHT22;6664;52.514;13.440;2022-08-19T01:00:01;20.90;99.90
13198;DHT22;6664;52.514;13.440;2022-08-19T01:02:30;20.40;99.90
13198;DHT22;6664;52.514;13.440;2022-08-19T01:04:57;20.90;99.90
13198;DHT22;6664;52.514;13.440;2022-08-19T01:07:24;20.40;99.90
13198;DHT22;6664;52.514;13.440;2022-08-19T01:09:53;20.60;99.90
13198;DHT22;6664;52.514;13.440;2022-08-19T01:12:20;20.80;99.90
13198;DHT22;6664;52.514;13.440;2022-08-19T01:14:49;21.10;99.90
13198;DHT22;6664;52.514;13.440;2022-08-19T01:17:16;20.70;99.90
13198;DHT22;6664;52.514;13.440;2022-08-19T01:19:49;21.20;99.90
13198;DHT22;6664;52.514;13.440;2022-08-19T01:22:26;20.60;99.90
13198;DHT22;6664;52.514;13.440;2022-08-19T01:24:59;21.00;99.90
13198;DHT22;6664;52.514;13.440;2022-08-19T01:27:40;21.20;99.90
13198;DHT22;6664;52.514;13.440;2022-08-19T01:30:14;20.90;99.90
13198;DHT22;6664;52.514;13.440;2022-08-19T01:32:43;21.20;99.90
13198;DHT22;6664;52.514;13.440;2022-08-19T01:35:12;20.50;99.90
13198;DHT22;6664;52.514;13.440;2022-08-19T01:37:44;20.60;99.90
13198;DHT22;6664;52.514;13.440;2022-08-19T01:40:12;20.40;99.90
13198;DHT22;6664;52.514;13.440;2022-08-19T01:42:41;21.20;99.90
13198;DHT22;6664;52.514;13.440;2022-08-19T01:45:09;21.40;99.90
13198;DHT22;6664;52.514;13.440;2022-08-19T01:47:36;21.40;99.90
13198;DHT22;6664;52.514;13.440;2022-08-19T01:50:06;21.10;99.90
13198;DHT22;6664;52.514;13.440;2022-08-19T01:52:36;20.90;99.90
13198;DHT22;6664;52.514;13.440;2022-08-19T01:55:07;20.90;99.90
13198;DHT22;6664;52.514;13.440;2022-08-19T01:57:37;20.80;99.90
13198;DHT22;6664;52.514;13.440;2022-08-19T02:00:08;20.50;99.90
13198;DHT22;6664;52.514;13.440;2022-08-19T02:02:35;20.50;99.90
13198;DHT22;6664;52.514;13.440;2022-08-19T02:05:03;20.50;99.90
13198;DHT22;6664;52.514;13.440;2022-08-19T02:07:30;20.40;99.90
13198;DHT22;6664;52.514;13.440;2022-08-19T02:10:05;19.90;99.90
13198;DHT22;6664;52.514;13.440;2022-08-19T02:12:38;20.00;99.90
13198;DHT22;6664;52.514;13.440;2022-08-19T02:15:08;20.30;99.90
13198;DHT22;6664;52.514;13.440;2022-08-19T02:17:39;20.30;99.90
13198;DHT22;6664;52.514;13.440;2022-08-19T02:20:06;20.20;99.90
13198;DHT22;6664;52.514;13.440;2022-08-19T02:22:36;20.20;99.90
13198;DHT22;6664;52.514;13.440;2022-08-19T02:25:09;20.30;99.90
13198;DHT22;6664;52.514;13.440;2022-08-19T02:27:40;20.20;99.90
13198;DHT22;6664;52.514;13.440;2022-08-19T02:30:13;20.10;99.90
13198;DHT22;6664;52.514;13.440;2022-08-19T02:32:43;20.00;99.90
13198;DHT22;6664;52.514;13.440;2022-08-19T02:35:12;20.20;99.90
13198;DHT22;6664;52.514;13.440;2022-08-19T02:37:40;20.10;99.90
13198;DHT22;6664;52.514;13.440;2022-08-19T02:40:27;20.20;99.90
13198;DHT22;6664;52.514;13.440;2022-08-19T02:42:54;20.10;99.90
13198;DHT22;6664;52.514;13.440;2022-08-19T02:45:22;20.30;99.90
13198;DHT22;6664;52.514;13.440;2022-08-19T02:47:49;20.20;99.90
13198;DHT22;6664;52.514;13.440;2022-08-19T02:50:16;20.20;99.90
13198;DHT22;6664;52.514;13.440;2022-08-19T02:52:43;20.10;99.90
13198;DHT22;6664;52.514;13.440;2022-08-19T02:55:10;20.20;99.90
13198;DHT22;6664;52.514;13.440;2022-08-19T02:57:37;20.20;99.90
13198;DHT22;6664;52.514;13.440;2022-08-19T03:00:06;20.20;99.90
13198;DHT22;6664;52.514;13.440;2022-08-19T03:02:35;20.20;99.90
13198;DHT22;6664;52.514;13.440;2022-08-19T03:05:03;20.20;99.90
13198;DHT22;6664;52.514;13.440;2022-08-19T03:07:32;20.20;99.90
13198;DHT22;6664;52.514;13.440;2022-08-19T03:09:59;20.10;99.90
13198;DHT22;6664;52.514;13.440;2022-08-19T03:12:26;20.10;99.90
13198;DHT22;6664;52.514;13.440;2022-08-19T03:14:53;20.10;99.90
13198;DHT22;6664;52.514;13.440;2022-08-19T03:17:20;20.10;99.90
13198;DHT22;6664;52.514;13.440;2022-08-19T03:19:47;20.10;99.90
13198;DHT22;6664;52.514;13.440;2022-08-19T03:22:18;20.00;99.90
13198;DHT22;6664;52.514;13.440;2022-08-19T03:24:46;19.90;99.90
13198;DHT22;6664;52.514;13.440;2022-08-19T03:27:13;19.90;99.90
13198;DHT22;6664;52.514;13.440;2022-08-19T03:29:43;19.90;99.90
13198;DHT22;6664;52.514;13.440;2022-08-19T03:32:11;19.90;99.90
13198;DHT22;6664;52.514;13.440;2022-08-19T03:35:00;19.90;99.90
13198;DHT22;6664;52.514;13.440;2022-08-19T03:37:32;20.00;99.90
13198;DHT22;6664;52.514;13.440;2022-08-19T03:40:04;20.00;99.90
13198;DHT22;6664;52.514;13.440;2022-08-19T03:42:31;20.00;99.90
13198;DHT22;6664;52.514;13.440;2022-08-19T03:45:15;19.90;99.90
13198;DHT22;6664;52.514;13.440;2022-08-19T03:47:42;19.90;99.90
13198;DHT22;6664;52.514;13.440;2022-08-19T03:50:09;20.00;99.90
13198;DHT22;6664;52.514;13.440;2022-08-19T03:52:38;20.10;99.90
13198;DHT22;6664;52.514;13.440;2022-08-19T03:55:10;20.10;99.90
13198;DHT22;6664;52.514;13.440;2022-08-19T03:57:38;20.10;99.90
13198;DHT22;6664;52.514;13.440;2022-08-19T04:00:07;20.10;99.90
13198;DHT22;6664;52.514;13.440;2022-08-19T04:02:43;20.10;99.90
13198;DHT22;6664;52.514;13.440;2022-08-19T04:05:27;20.00;99.90
13198;DHT22;6664;52.514;13.440;2022-08-19T04:07:57;20.10;99.90
13198;DHT22;6664;52.514;13.440;2022-08-19T04:10:25;20.10;99.90
13198;DHT22;6664;52.514;13.440;2022-08-19T04:12:52;20.20;99.90
13198;DHT22;6664;52.514;13.440;2022-08-19T04:15:19;20.10;99.90
13198;DHT22;6664;52.514;13.440;2022-08-19T04:17:49;20.10;99.90
13198;DHT22;6664;52.514;13.440;2022-08-19T04:20:19;20.20;99.90
13198;DHT22;6664;52.514;13.440;2022-08-19T04:22:51;20.20;99.90
13198;DHT22;6664;52.514;13.440;2022-08-19T04:25:18;20.20;99.90
13198;DHT22;6664;52.514;13.440;2022-08-19T04:27:45;20.20;99.90
13198;DHT22;6664;52.514;13.440;2022-08-19T04:30:13;20.30;99.90
13198;DHT22;6664;52.514;13.440;2022-08-19T04:32:41;20.30;99.90
13198;DHT22;6664;52.514;13.440;2022-08-19T04:35:12;20.30;99.90
13198;DHT22;6664;52.514;13.440;2022-08-19T04:37:44;20.30;99.90
13198;DHT22;6664;52.514;13.440;2022-08-19T04:40:12;20.20;99.90
13198;DHT22;6664;52.514;13.440;2022-08-19T04:42:58;20.30;99.90
13198;DHT22;6664;52.514;13.440;2022-08-19T04:45:25;20.30;99.90
13198;DHT22;6664;52.514;13.440;2022-08-19T04:47:55;20.30;99.90
13198;DHT22;6664;52.514;13.440;2022-08-19T04:50:44;20.30;99.90
13198;DHT22;6664;52.514;13.440;2022-08-19T04:53:17;20.40;99.90
13198;DHT22;6664;52.514;13.440;2022-08-19T04:55:44;20.40;99.90
13198;DHT22;6664;52.514;13.440;2022-08-19T04:58:13;20.40;99.90
13198;DHT22;6664;52.514;13.440;2022-08-19T05:00:41;20.40;99.90
13198;DHT22;6664;52.514;13.440;2022-08-19T05:03:10;20.40;99.90
13198;DHT22;6664;52.514;13.440;2022-08-19T05:05:41;20.40;99.90
13198;DHT22;6664;52.514;13.440;2022-08-19T05:08:12;20.40;99.90
13198;DHT22;6664;52.514;13.440;2022-08-19T05:10:41;20.50;99.90
13198;DHT22;6664;52.514;13.440;2022-08-19T05:13:07;20.40;99.90
13198;DHT22;6664;52.514;13.440;2022-08-19T05:15:35;20.50;99.90
13198;DHT22;6664;52.514;13.440;2022-08-19T05:18:02;20.50;99.90
13198;DHT22;6664;52.514;13.440;2022-08-19T05:20:48;20.50;99.90
13198;DHT22;6664;52.514;13.440;2022-08-19T05:23:33;20.60;99.90
13198;DHT22;6664;52.514;13.440;2022-08-19T05:26:03;20.60;99.90
13198;DHT22;6664;52.514;13.440;2022-08-19T05:28:30;20.60;99.90
13198;DHT22;6664;52.514;13.440;2022-08-19T05:30:58;20.60;99.90
13198;DHT22;6664;52.514;13.440;2022-08-19T05:33:27;20.70;99.90
13198;DHT22;6664;52.514;13.440;2022-08-19T05:35:54;20.80;99.90
13198;DHT22;6664;52.514;13.440;2022-08-19T05:38:22;20.80;99.90
13198;DHT22;6664;52.514;13.440;2022-08-19T05:40:49;21.00;99.90
13198;DHT22;6664;52.514;13.440;2022-08-19T05:43:16;21.00;99.90
13198;DHT22;6664;52.514;13.440;2022-08-19T05:45:43;21.20;99.90
13198;DHT22;6664;52.514;13.440;2022-08-19T05:48:13;21.20;99.90
13198;DHT22;6664;52.514;13.440;2022-08-19T05:50:41;21.30;99.90
13198;DHT22;6664;52.514;13.440;2022-08-19T05:53:08;21.30;99.90
13198;DHT22;6664;52.514;13.440;2022-08-19T05:55:40;21.40;99.90
13198;DHT22;6664;52.514;13.440;2022-08-19T05:58:09;21.50;99.90
13198;DHT22;6664;52.514;13.440;2022-08-19T06:00:37;21.40;99.90
13198;DHT22;6664;52.514;13.440;2022-08-19T06:03:04;21.40;99.90
13198;DHT22;6664;52.514;13.440;2022-08-19T06:05:39;21.50;99.90
13198;DHT22;6664;52.514;13.440;2022-08-19T06:08:18;21.50;99.90
13198;DHT22;6664;52.514;13.440;2022-08-19T06:10:45;21.60;99.90
13198;DHT22;6664;52.514;13.440;2022-08-19T06:13:12;21.70;99.90
13198;DHT22;6664;52.514;13.440;2022-08-19T06:15:39;21.70;99.90
13198;DHT22;6664;52.514;13.440;2022-08-19T06:18:14;21.80;99.90
13198;DHT22;6664;52.514;13.440;2022-08-19T06:20:43;21.80;99.90
13198;DHT22;6664;52.514;13.440;2022-08-19T06:23:27;22.00;99.90
13198;DHT22;6664;52.514;13.440;2022-08-19T06:25:57;22.00;99.90
13198;DHT22;6664;52.514;13.440;2022-08-19T06:28:24;21.90;99.90
13198;DHT22;6664;52.514;13.440;2022-08-19T06:30:50;22.00;99.90
13198;DHT22;6664;52.514;13.440;2022-08-19T06:33:17;22.10;99.90
13198;DHT22;6664;52.514;13.440;2022-08-19T06:35:44;22.10;99.90
13198;DHT22;6664;52.514;13.440;2022-08-19T06:38:11;22.30;99.90
13198;DHT22;6664;52.514;13.440;2022-08-19T06:40:39;22.40;99.90
13198;DHT22;6664;52.514;13.440;2022-08-19T06:43:06;22.40;99.90
13198;DHT22;6664;52.514;13.440;2022-08-19T06:45:37;22.40;99.90
13198;DHT22;6664;52.514;13.440;2022-08-19T06:48:05;22.50;99.90
13198;DHT22;6664;52.514;13.440;2022-08-19T06:50:38;22.50;99.90
13198;DHT22;6664;52.514;13.440;2022-08-19T06:53:09;22.70;99.90
13198;DHT22;6664;52.514;13.440;2022-08-19T06:55:38;22.70;99.90
13198;DHT22;6664;52.514;13.440;2022-08-19T06:58:05;22.90;99.90
13198;DHT22;6664;52.514;13.440;2022-08-19T07:00:35;23.30;99.90
13198;DHT22;6664;52.514;13.440;2022-08-19T07:03:03;23.20;99.90
13198;DHT22;6664;52.514;13.440;2022-08-19T07:05:41;23.40;99.90
13198;DHT22;6664;52.514;13.440;2022-08-19T07:08:14;23.30;99.90
13198;DHT22;6664;52.514;13.440;2022-08-19T07:10:44;23.20;99.90
13198;DHT22;6664;52.514;13.440;2022-08-19T07:13:11;23.20;99.90
13198;DHT22;6664;52.514;13.440;2022-08-19T07:15:38;23.10;99.90
13198;DHT22;6664;52.514;13.440;2022-08-19T07:18:08;23.20;99.90
13198;DHT22;6664;52.514;13.440;2022-08-19T07:20:38;23.40;99.90
13198;DHT22;6664;52.514;13.440;2022-08-19T07:23:10;23.70;99.90
13198;DHT22;6664;52.514;13.440;2022-08-19T07:25:44;23.60;99.90
13198;DHT22;6664;52.514;13.440;2022-08-19T07:28:18;23.60;99.90
13198;DHT22;6664;52.514;13.440;2022-08-19T07:30:50;23.70;99.90
13198;DHT22;6664;52.514;13.440;2022-08-19T07:33:18;23.60;99.90
13198;DHT22;6664;52.514;13.440;2022-08-19T07:35:47;23.70;99.90
13198;DHT22;6664;52.514;13.440;2022-08-19T07:38:15;23.60;99.90
13198;DHT22;6664;52.514;13.440;2022-08-19T07:40:44;23.70;99.90
13198;DHT22;6664;52.514;13.440;2022-08-19T07:43:12;23.60;99.90
13198;DHT22;6664;52.514;13.440;2022-08-19T07:45:44;23.60;99.90
13198;DHT22;6664;52.514;13.440;2022-08-19T07:48:11;23.80;99.90
13198;DHT22;6664;52.514;13.440;2022-08-19T07:50:39;23.70;99.90
13198;DHT22;6664;52.514;13.440;2022-08-19T07:53:08;23.80;99.90
13198;DHT22;6664;52.514;13.440;2022-08-19T07:55:35;23.70;99.90
13198;DHT22;6664;52.514;13.440;2022-08-19T07:58:09;23.60;99.90
13198;DHT22;6664;52.514;13.440;2022-08-19T08:00:37;23.80;99.90
13198;DHT22;6664;52.514;13.440;2022-08-19T08:03:04;23.50;99.90
13198;DHT22;6664;52.514;13.440;2022-08-19T08:05:31;23.70;99.90
13198;DHT22;6664;52.514;13.440;2022-08-19T08:08:16;23.80;99.90
13198;DHT22;6664;52.514;13.440;2022-08-19T08:11:03;23.70;99.90
13198;DHT22;6664;52.514;13.440;2022-08-19T08:13:33;23.50;99.90
13198;DHT22;6664;52.514;13.440;2022-08-19T08:16:02;23.80;99.90
13198;DHT22;6664;52.514;13.440;2022-08-19T08:18:29;23.80;99.90
13198;DHT22;6664;52.514;13.440;2022-08-19T08:20:58;23.90;99.90
13198;DHT22;6664;52.514;13.440;2022-08-19T08:23:25;23.90;99.90
13198;DHT22;6664;52.514;13.440;2022-08-19T08:25:55;23.60;99.90
13198;DHT22;6664;52.514;13.440;2022-08-19T08:28:25;24.00;99.90
13198;DHT22;6664;52.514;13.440;2022-08-19T08:30:58;23.90;99.90
13198;DHT22;6664;52.514;13.440;2022-08-19T08:33:27;23.80;99.90
13198;DHT22;6664;52.514;13.440;2022-08-19T08:36:07;23.90;99.90
13198;DHT22;6664;52.514;13.440;2022-08-19T08:38:38;24.00;99.90
13198;DHT22;6664;52.514;13.440;2022-08-19T08:41:29;24.60;99.90
13198;DHT22;6664;52.514;13.440;2022-08-19T08:43:58;25.10;99.90
13198;DHT22;6664;52.514;13.440;2022-08-19T08:46:39;25.40;99.90
13198;DHT22;6664;52.514;13.440;2022-08-19T08:52:07;25.80;99.90
13198;DHT22;6664;52.514;13.440;2022-08-19T08:54:43;25.80;99.90
13198;DHT22;6664;52.514;13.440;2022-08-19T08:57:30;25.60;99.90
13198;DHT22;6664;52.514;13.440;2022-08-19T09:00:11;25.40;99.90
13198;DHT22;6664;52.514;13.440;2022-08-19T09:02:42;24.80;99.90
13198;DHT22;6664;52.514;13.440;2022-08-19T09:05:10;24.40;99.90
13198;DHT22;6664;52.514;13.440;2022-08-19T09:10:40;24.90;99.90
13198;DHT22;6664;52.514;13.440;2022-08-19T09:16:05;24.70;99.90
13198;DHT22;6664;52.514;13.440;2022-08-19T09:18:45;24.70;99.90
13198;DHT22;6664;52.514;13.440;2022-08-19T09:21:15;24.60;99.90
13198;DHT22;6664;52.514;13.440;2022-08-19T09:23:42;24.90;99.90
13198;DHT22;6664;52.514;13.440;2022-08-19T09:26:14;25.10;99.90
13198;DHT22;6664;52.514;13.440;2022-08-19T09:28:47;25.40;99.90
13198;DHT22;6664;52.514;13.440;2022-08-19T09:31:18;25.80;99.90
13198;DHT22;6664;52.514;13.440;2022-08-19T09:33:46;26.10;99.90
13198;DHT22;6664;52.514;13.440;2022-08-19T09:36:16;25.80;99.90
13198;DHT22;6664;52.514;13.440;2022-08-19T09:39:00;25.90;99.90
13198;DHT22;6664;52.514;13.440;2022-08-19T09:41:27;25.40;99.90
13198;DHT22;6664;52.514;13.440;2022-08-19T09:43:56;25.60;99.90
13198;DHT22;6664;52.514;13.440;2022-08-19T09:46:27;25.70;99.90
13198;DHT22;6664;52.514;13.440;2022-08-19T09:48:57;26.10;99.90
13198;DHT22;6664;52.514;13.440;2022-08-19T09:51:32;26.20;99.90
13198;DHT22;6664;52.514;13.440;2022-08-19T09:54:02;26.00;99.90
13198;DHT22;6664;52.514;13.440;2022-08-19T09:56:31;26.00;99.90
13198;DHT22;6664;52.514;13.440;2022-08-19T09:59:00;26.20;99.90
13198;DHT22;6664;52.514;13.440;2022-08-19T10:01:29;25.90;99.90
13198;DHT22;6664;52.514;13.440;2022-08-19T10:03:59;25.90;99.90
13198;DHT22;6664;52.514;13.440;2022-08-19T10:06:28;26.10;99.90
13198;DHT22;6664;52.514;13.440;2022-08-19T10:09:16;26.40;99.90
13198;DHT22;6664;52.514;13.440;2022-08-19T10:12:01;26.30;99.90
13198;DHT22;6664;52.514;13.440;2022-08-19T10:14:33;26.20;98.70
13198;DHT22;6664;52.514;13.440;2022-08-19T10:17:01;25.60;97.50
13198;DHT22;6664;52.514;13.440;2022-08-19T10:19:45;25.50;97.90
13198;DHT22;6664;52.514;13.440;2022-08-19T10:22:22;25.70;98.20
13198;DHT22;6664;52.514;13.440;2022-08-19T10:24:51;25.90;97.00
13198;DHT22;6664;52.514;13.440;2022-08-19T10:27:20;25.80;96.10
13198;DHT22;6664;52.514;13.440;2022-08-19T10:29:48;25.40;96.00
13198;DHT22;6664;52.514;13.440;2022-08-19T10:32:19;24.90;96.10
13198;DHT22;6664;52.514;13.440;2022-08-19T10:35:03;24.90;96.80
13198;DHT22;6664;52.514;13.440;2022-08-19T10:37:36;24.50;95.80
13198;DHT22;6664;52.514;13.440;2022-08-19T10:40:26;24.50;96.00
13198;DHT22;6664;52.514;13.440;2022-08-19T10:42:54;24.50;96.10
13198;DHT22;6664;52.514;13.440;2022-08-19T10:45:27;25.10;95.90
13198;DHT22;6664;52.514;13.440;2022-08-19T10:47:55;25.10;95.40
13198;DHT22;6664;52.514;13.440;2022-08-19T10:50:22;24.80;94.90
13198;DHT22;6664;52.514;13.440;2022-08-19T10:53:08;24.60;95.30
13198;DHT22;6664;52.514;13.440;2022-08-19T10:55:35;24.50;95.60
13198;DHT22;6664;52.514;13.440;2022-08-19T10:58:22;24.50;95.60
13198;DHT22;6664;52.514;13.440;2022-08-19T11:00:55;24.50;95.70
13198;DHT22;6664;52.514;13.440;2022-08-19T11:03:23;24.60;95.80
13198;DHT22;6664;52.514;13.440;2022-08-19T11:06:01;25.10;94.70
13198;DHT22;6664;52.514;13.440;2022-08-19T11:08:28;25.20;94.00
13198;DHT22;6664;52.514;13.440;2022-08-19T11:10:55;24.90;94.70
13198;DHT22;6664;52.514;13.440;2022-08-19T11:13:24;24.80;94.70
13198;DHT22;6664;52.514;13.440;2022-08-19T11:15:59;24.40;95.20
13198;DHT22;6664;52.514;13.440;2022-08-19T11:18:38;24.20;95.70
13198;DHT22;6664;52.514;13.440;2022-08-19T11:21:13;24.00;96.30
13198;DHT22;6664;52.514;13.440;2022-08-19T11:23:40;23.80;96.70
13198;DHT22;6664;52.514;13.440;2022-08-19T11:26:07;23.80;96.60
13198;DHT22;6664;52.514;13.440;2022-08-19T11:28:37;24.00;96.70
13198;DHT22;6664;52.514;13.440;2022-08-19T11:31:13;24.30;96.30
13198;DHT22;6664;52.514;13.440;2022-08-19T11:33:40;24.40;96.00
13198;DHT22;6664;52.514;13.440;2022-08-19T11:36:15;24.90;95.00
13198;DHT22;6664;52.514;13.440;2022-08-19T11:38:44;25.00;94.30
13198;DHT22;6664;52.514;13.440;2022-08-19T11:41:11;24.90;94.50
13198;DHT22;6664;52.514;13.440;2022-08-19T11:43:38;25.00;94.40
13198;DHT22;6664;52.514;13.440;2022-08-19T11:46:11;25.20;93.60
13198;DHT22;6664;52.514;13.440;2022-08-19T11:48:40;24.80;93.50
13198;DHT22;6664;52.514;13.440;2022-08-19T11:51:11;24.60;94.00
13198;DHT22;6664;52.514;13.440;2022-08-19T11:53:44;24.40;94.40
13198;DHT22;6664;52.514;13.440;2022-08-19T11:56:11;24.20;95.00
13198;DHT22;6664;52.514;13.440;2022-08-19T11:58:39;24.00;95.00
13198;DHT22;6664;52.514;13.440;2022-08-19T12:01:09;24.10;95.10
13198;DHT22;6664;52.514;13.440;2022-08-19T12:03:38;24.10;94.80
13198;DHT22;6664;52.514;13.440;2022-08-19T12:06:11;23.90;95.10
13198;DHT22;6664;52.514;13.440;2022-08-19T12:08:41;24.00;95.00
13198;DHT22;6664;52.514;13.440;2022-08-19T12:11:12;24.00;95.10
13198;DHT22;6664;52.514;13.440;2022-08-19T12:13:42;23.90;95.10
13198;DHT22;6664;52.514;13.440;2022-08-19T12:16:18;24.00;95.10
13198;DHT22;6664;52.514;13.440;2022-08-19T12:18:45;24.30;95.50
13198;DHT22;6664;52.514;13.440;2022-08-19T12:21:18;24.40;94.10
13198;DHT22;6664;52.514;13.440;2022-08-19T12:23:49;25.00;93.30
13198;DHT22;6664;52.514;13.440;2022-08-19T12:26:22;25.20;92.10
13198;DHT22;6664;52.514;13.440;2022-08-19T12:28:49;25.30;92.00
13198;DHT22;6664;52.514;13.440;2022-08-19T12:31:19;25.80;91.10
13198;DHT22;6664;52.514;13.440;2022-08-19T12:33:48;25.90;90.20
13198;DHT22;6664;52.514;13.440;2022-08-19T12:36:16;25.70;90.50
13198;DHT22;6664;52.514;13.440;2022-08-19T12:38:44;25.90;90.20
13198;DHT22;6664;52.514;13.440;2022-08-19T12:41:18;26.30;90.40
13198;DHT22;6664;52.514;13.440;2022-08-19T12:43:49;26.20;87.80
13198;DHT22;6664;52.514;13.440;2022-08-19T12:46:18;26.40;87.70
13198;DHT22;6664;52.514;13.440;2022-08-19T12:48:48;26.70;86.20
13198;DHT22;6664;52.514;13.440;2022-08-19T12:51:20;26.40;86.50
13198;DHT22;6664;52.514;13.440;2022-08-19T12:53:48;26.90;85.80
13198;DHT22;6664;52.514;13.440;2022-08-19T12:56:18;26.40;84.60
13198;DHT22;6664;52.514;13.440;2022-08-19T12:58:48;26.50;85.00
13198;DHT22;6664;52.514;13.440;2022-08-19T13:01:18;28.10;82.60
13198;DHT22;6664;52.514;13.440;2022-08-19T13:03:48;30.50;74.60
13198;DHT22;6664;52.514;13.440;2022-08-19T13:06:16;28.70;72.40
13198;DHT22;6664;52.514;13.440;2022-08-19T13:08:45;28.00;75.60
13198;DHT22;6664;52.514;13.440;2022-08-19T13:11:14;27.50;77.50
13198;DHT22;6664;52.514;13.440;2022-08-19T13:13:46;27.50;77.60
13198;DHT22;6664;52.514;13.440;2022-08-19T13:16:14;28.00;76.90
13198;DHT22;6664;52.514;13.440;2022-08-19T13:18:46;28.30;75.40
13198;DHT22;6664;52.514;13.440;2022-08-19T13:21:14;29.20;72.20
13198;DHT22;6664;52.514;13.440;2022-08-19T13:23:41;29.40;69.70
13198;DHT22;6664;52.514;13.440;2022-08-19T13:26:10;29.00;71.20
13198;DHT22;6664;52.514;13.440;2022-08-19T13:28:39;28.40;71.50
13198;DHT22;6664;52.514;13.440;2022-08-19T13:31:27;28.50;71.70
13198;DHT22;6664;52.514;13.440;2022-08-19T13:34:13;28.30;73.40
13198;DHT22;6664;52.514;13.440;2022-08-19T13:36:41;28.70;71.20
13198;DHT22;6664;52.514;13.440;2022-08-19T13:39:11;28.70;72.00
13198;DHT22;6664;52.514;13.440;2022-08-19T13:41:44;28.40;70.70
13198;DHT22;6664;52.514;13.440;2022-08-19T13:44:18;27.40;74.00
13198;DHT22;6664;52.514;13.440;2022-08-19T13:46:46;27.50;75.20
13198;DHT22;6664;52.514;13.440;2022-08-19T13:49:14;26.90;76.70
13198;DHT22;6664;52.514;13.440;2022-08-19T13:51:42;26.20;79.70
13198;DHT22;6664;52.514;13.440;2022-08-19T13:54:10;25.80;81.60
13198;DHT22;6664;52.514;13.440;2022-08-19T13:56:43;25.50;82.30
13198;DHT22;6664;52.514;13.440;2022-08-19T13:59:10;25.30;83.70
13198;DHT22;6664;52.514;13.440;2022-08-19T14:01:41;25.50;84.00
13198;DHT22;6664;52.514;13.440;2022-08-19T14:04:10;25.20;84.60
13198;DHT22;6664;52.514;13.440;2022-08-19T14:06:37;25.30;85.10
13198;DHT22;6664;52.514;13.440;2022-08-19T14:09:04;25.10;85.60
13198;DHT22;6664;52.514;13.440;2022-08-19T14:11:34;25.40;85.40
13198;DHT22;6664;52.514;13.440;2022-08-19T14:14:01;25.50;84.90
13198;DHT22;6664;52.514;13.440;2022-08-19T14:16:28;25.70;84.20
13198;DHT22;6664;52.514;13.440;2022-08-19T14:18:56;25.60;84.20
13198;DHT22;6664;52.514;13.440;2022-08-19T14:21:24;25.40;84.40
13198;DHT22;6664;52.514;13.440;2022-08-19T14:23:54;25.30;85.00
13198;DHT22;6664;52.514;13.440;2022-08-19T14:26:22;25.20;85.40
13198;DHT22;6664;52.514;13.440;2022-08-19T14:28:50;25.40;85.10
13198;DHT22;6664;52.514;13.440;2022-08-19T14:31:18;25.40;85.20
13198;DHT22;6664;52.514;13.440;2022-08-19T14:33:47;25.40;84.40
13198;DHT22;6664;52.514;13.440;2022-08-19T14:36:14;25.30;84.40
13198;DHT22;6664;52.514;13.440;2022-08-19T14:38:41;24.90;85.10
13198;DHT22;6664;52.514;13.440;2022-08-19T14:41:17;24.80;85.80
13198;DHT22;6664;52.514;13.440;2022-08-19T14:43:50;24.70;86.90
13198;DHT22;6664;52.514;13.440;2022-08-19T14:46:21;24.70;87.70
13198;DHT22;6664;52.514;13.440;2022-08-19T14:48:48;24.40;88.00
13198;DHT22;6664;52.514;13.440;2022-08-19T14:51:19;24.30;89.40
13198;DHT22;6664;52.514;13.440;2022-08-19T14:53:47;24.10;90.00
13198;DHT22;6664;52.514;13.440;2022-08-19T14:56:20;24.20;90.00
13198;DHT22;6664;52.514;13.440;2022-08-19T14:58:47;24.20;90.10
13198;DHT22;6664;52.514;13.440;2022-08-19T15:01:19;24.40;90.00
13198;DHT22;6664;52.514;13.440;2022-08-19T15:03:49;24.40;89.70
13198;DHT22;6664;52.514;13.440;2022-08-19T15:06:19;24.60;89.90
13198;DHT22;6664;52.514;13.440;2022-08-19T15:08:46;24.50;89.40
13198;DHT22;6664;52.514;13.440;2022-08-19T15:11:16;24.30;90.00
13198;DHT22;6664;52.514;13.440;2022-08-19T15:13:44;24.40;89.90
13198;DHT22;6664;52.514;13.440;2022-08-19T15:16:13;24.30;90.20
13198;DHT22;6664;52.514;13.440;2022-08-19T15:18:45;24.20;90.50
13198;DHT22;6664;52.514;13.440;2022-08-19T15:21:14;24.20;90.50
13198;DHT22;6664;52.514;13.440;2022-08-19T15:23:53;24.10;90.50
13198;DHT22;6664;52.514;13.440;2022-08-19T15:26:20;24.10;90.50
13198;DHT22;6664;52.514;13.440;2022-08-19T15:28:48;24.10;90.40
13198;DHT22;6664;52.514;13.440;2022-08-19T15:31:18;24.00;90.40
13198;DHT22;6664;52.514;13.440;2022-08-19T15:33:55;24.00;90.40
13198;DHT22;6664;52.514;13.440;2022-08-19T15:36:25;24.00;90.40
13198;DHT22;6664;52.514;13.440;2022-08-19T15:38:53;24.00;90.40
13198;DHT22;6664;52.514;13.440;2022-08-19T15:41:22;23.80;90.70
13198;DHT22;6664;52.514;13.440;2022-08-19T15:43:53;23.80;91.00
13198;DHT22;6664;52.514;13.440;2022-08-19T15:46:23;23.80;91.20
13198;DHT22;6664;52.514;13.440;2022-08-19T15:48:52;23.70;91.40
13198;DHT22;6664;52.514;13.440;2022-08-19T15:51:27;23.70;91.50
13198;DHT22;6664;52.514;13.440;2022-08-19T15:53:57;23.60;91.80
13198;DHT22;6664;52.514;13.440;2022-08-19T15:56:27;23.50;92.10
13198;DHT22;6664;52.514;13.440;2022-08-19T15:59:25;23.40;92.30
13198;DHT22;6664;52.514;13.440;2022-08-19T16:02:13;23.30;92.60